Terminal Aerodrome Forecast
Issued by NWS

Home | Current Version | Previous Version | Text Only | Print | Product List | Glossary Off
Versions: 1 2 3 4 5 6 7 8 9 10 11 12

000
FTUS45 KGGW 202327
TAFGDV
TAF
KGDV 202327Z 2100/2124 11013KT P6SM BKN110
     FM210200 10007KT P6SM BKN120
     FM211500 34009KT P6SM SCT150=

USA.gov is the U.S. government's official web portal to all federal, state and local government web resources and services.